Accueil
METAR-TAF:

METAR-TAF

Aéroports :

Winston Salem, Caroline du Nord, États-Unis

latitude: 36-08-00N, longitude: 080-13-29W, altitude: 295 m

Observation

Le bulletin a été fait il y a 39 minutes, à 20:54 UTC
Vent 10 kt de nord-ouest
Température 13°C
Humidité 44%
Pression 1021 hPa
Visibilité: 16.1 km
Ciel clair

METAR: KINT 202054Z 31010KT 10SM CLR 13/01 A3016 RMK AO2 SLP211 T01330006 53006

Heure: 16:33 (21:33 UTC)

Prévision

Le bulletin a été fait il y a 4 heures et 6 minutes, à 17:27 UTC
Prévision valable du 20 à 18 UTC au 21 à 18 UTC
Vent 13 kt de nord/nord-ouest avec des rafales jusqu'à 21 kt
Visibilité: 10 km
Quelques nuages à une hauteur de 5000 ft
A partir de 20 à 2300 UTC
Vent 4 kt de direction variable
Visibilité: 10 km
Nuages épars à une hauteur de 25000 ft

TAF: KINT 201727Z 2018/2118 33013G21KT P6SM FEW050 FM202300 VRB04KT P6SM SCT250

Observations et prévisions météorologiques de plus de 4000 aéroports (messages METAR et TAF).

Les stations disponibles sont représentées par des disques jaunes et rouges sur la carte.

Passer la souris dessus pour voir le nom de la station.

Cliquer dessus pour voir les observations et prévisions météorologiques.

Pour changer de carte: cliquez sur les boutons verts avec une croix noire pour zoomer, sur le bouton vert avec un tiret pour effectuer un zoom arrière, ou sur les flèches vertes pour les cartes adjacentes.


METAR-TAF: